createdAt,value
2022-10-11T03:00:51.154Z,13.00
2022-10-11T03:03:18.641Z,7.57
2022-10-11T03:05:46.158Z,7.13
2022-10-11T03:08:14.517Z,10.60
2022-10-11T03:10:42.308Z,14.55
2022-10-11T03:13:10.939Z,8.60
2022-10-11T03:15:40.352Z,8.55
2022-10-11T03:18:09.175Z,8.13
2022-10-11T03:20:36.675Z,8.68
2022-10-11T03:23:04.202Z,7.80
2022-10-11T03:25:31.669Z,6.97
2022-10-11T03:27:59.140Z,7.97
2022-10-11T03:30:26.869Z,8.53
2022-10-11T03:32:54.434Z,13.20
2022-10-11T03:35:23.355Z,5.85
2022-10-11T03:37:51.504Z,5.38
2022-10-11T03:40:19.093Z,6.45
2022-10-11T03:42:46.567Z,8.63
2022-10-11T03:45:14.425Z,9.95
2022-10-11T03:47:42.094Z,10.15
2022-10-11T03:50:10.420Z,10.02
2022-10-11T03:52:39.282Z,6.03
2022-10-11T03:55:07.269Z,7.53
2022-10-11T03:57:34.730Z,6.97
2022-10-11T04:00:02.220Z,7.15
2022-10-11T04:02:29.738Z,7.95
2022-10-11T04:04:57.253Z,10.23
2022-10-11T04:07:24.754Z,6.47
2022-10-11T04:09:53.919Z,6.82
2022-10-11T04:12:21.466Z,5.70
2022-10-11T04:14:48.978Z,7.35
2022-10-11T04:17:16.734Z,6.55
2022-10-11T04:19:44.260Z,10.87
2022-10-11T04:22:11.726Z,10.88
2022-10-11T04:24:39.218Z,8.35
2022-10-11T04:27:08.068Z,7.28
2022-10-11T04:29:35.546Z,7.38
2022-10-11T04:32:03.104Z,11.97
2022-10-11T04:34:31.407Z,7.22
2022-10-11T04:36:58.913Z,7.70
2022-10-11T04:39:26.383Z,11.07
2022-10-11T04:41:53.870Z,4.88
2022-10-11T04:44:22.709Z,8.33
2022-10-11T04:46:50.181Z,6.75
2022-10-11T04:49:17.729Z,9.68
2022-10-11T04:51:45.227Z,7.20
2022-10-11T04:54:12.743Z,7.63
2022-10-11T04:56:40.229Z,4.30
2022-10-11T04:59:07.974Z,6.80
2022-10-11T05:01:36.832Z,7.68
2022-10-11T05:04:04.429Z,7.40
2022-10-11T05:06:31.923Z,5.13
2022-10-11T05:09:00.598Z,18.53
2022-10-11T05:11:28.114Z,5.57
2022-10-11T05:13:56.578Z,5.53
2022-10-11T05:16:24.095Z,7.53
2022-10-11T05:18:53.125Z,6.60
2022-10-11T05:21:21.724Z,7.33
2022-10-11T05:23:49.740Z,8.18
2022-10-11T05:26:17.800Z,6.55
2022-10-11T05:28:45.671Z,8.10
2022-10-11T05:31:13.275Z,9.30
2022-10-11T05:33:40.754Z,8.97
2022-10-11T05:36:10.094Z,6.43
2022-10-11T05:38:38.291Z,4.60
2022-10-11T05:41:06.336Z,7.63
2022-10-11T05:43:33.843Z,5.80
2022-10-11T05:46:01.609Z,11.13
2022-10-11T05:48:29.323Z,9.20
2022-10-11T05:50:59.888Z,6.68
2022-10-11T05:53:28.813Z,5.72
2022-10-11T05:55:56.540Z,8.35
2022-10-11T05:58:24.027Z,6.97
2022-10-11T06:00:51.560Z,6.43
2022-10-11T06:03:21.074Z,6.65
2022-10-11T06:05:50.435Z,6.20
2022-10-11T06:08:20.771Z,6.78
2022-10-11T06:10:49.637Z,7.07
2022-10-11T06:13:17.114Z,7.68
2022-10-11T06:15:44.627Z,10.20
2022-10-11T06:18:12.128Z,8.93
2022-10-11T06:20:39.615Z,5.55
2022-10-11T06:23:07.153Z,6.57
2022-10-11T06:25:34.612Z,8.20
2022-10-11T06:28:03.675Z,11.10
2022-10-11T06:30:31.182Z,6.45
2022-10-11T06:33:03.762Z,7.93
2022-10-11T06:35:32.243Z,9.40
2022-10-11T06:37:59.709Z,9.75
2022-10-11T06:40:27.316Z,8.88
2022-10-11T06:42:54.865Z,8.13
2022-10-11T06:45:23.838Z,8.73
2022-10-11T06:47:51.352Z,8.93
2022-10-11T06:50:34.904Z,6.03
2022-10-11T06:53:07.404Z,5.82
2022-10-11T06:55:35.162Z,4.45
2022-10-11T06:58:02.637Z,9.57
2022-10-11T07:00:31.511Z,4.77
2022-10-11T07:02:59.016Z,5.60
2022-10-11T07:05:26.562Z,7.95
2022-10-11T07:07:54.028Z,4.45
2022-10-11T07:10:21.705Z,5.45
2022-10-11T07:12:49.179Z,6.30
2022-10-11T07:15:16.806Z,5.38
2022-10-11T07:17:45.653Z,3.95
2022-10-11T07:20:13.300Z,5.80
2022-10-11T07:22:40.812Z,4.82
2022-10-11T07:25:08.642Z,4.40
2022-10-11T07:27:36.148Z,4.53
2022-10-11T07:30:03.758Z,7.00
2022-10-11T07:32:31.905Z,5.00
2022-10-11T07:35:00.978Z,5.88
2022-10-11T07:37:28.482Z,4.53
2022-10-11T07:39:55.969Z,4.68
2022-10-11T07:42:23.517Z,4.38
2022-10-11T07:44:51.008Z,5.07
2022-10-11T07:47:18.542Z,4.78
2022-10-11T07:49:46.091Z,4.20
2022-10-11T07:52:14.930Z,5.65
2022-10-11T07:54:42.454Z,6.43
2022-10-11T07:57:10.004Z,7.43
2022-10-11T07:59:37.518Z,5.03
2022-10-11T08:02:05.039Z,5.60
2022-10-11T08:04:56.443Z,4.25
2022-10-11T08:07:25.318Z,5.40
2022-10-11T08:09:53.061Z,10.00
2022-10-11T08:12:20.577Z,9.18
2022-10-11T08:14:48.081Z,5.33
2022-10-11T08:17:15.723Z,8.95
2022-10-11T08:19:43.246Z,6.47
2022-10-11T08:22:10.773Z,7.50
2022-10-11T08:24:39.690Z,8.60
2022-10-11T08:27:07.184Z,5.87
2022-10-11T08:29:34.742Z,7.18
2022-10-11T08:32:02.238Z,5.95
2022-10-11T08:34:29.736Z,5.82
2022-10-11T08:36:57.274Z,6.88
2022-10-11T08:39:24.777Z,5.67
2022-10-11T08:41:55.121Z,4.57
2022-10-11T08:44:51.737Z,5.55
2022-10-11T08:47:22.441Z,6.28
2022-10-11T08:49:50.772Z,5.43
2022-10-11T08:52:22.714Z,6.20
2022-10-11T08:54:51.569Z,4.38
2022-10-11T08:57:21.496Z,6.43
2022-10-11T08:59:51.032Z,5.50
2022-10-11T09:02:24.734Z,4.72
2022-10-11T09:04:53.352Z,5.80
2022-10-11T09:07:25.399Z,5.00
2022-10-11T09:10:00.162Z,6.18
2022-10-11T09:12:37.160Z,5.68
2022-10-11T09:15:16.645Z,5.75
2022-10-11T09:17:52.372Z,6.30
2022-10-11T09:20:36.689Z,4.57
2022-10-11T09:23:05.761Z,5.55
2022-10-11T09:25:34.901Z,5.93
2022-10-11T09:28:07.392Z,5.10
2022-10-11T09:30:36.833Z,6.13
2022-10-11T09:33:09.909Z,4.55
2022-10-11T09:35:39.601Z,4.45
2022-10-11T09:38:08.929Z,3.65
2022-10-11T09:40:41.250Z,6.13
2022-10-11T09:43:10.416Z,4.13
2022-10-11T09:45:38.764Z,4.75
2022-10-11T09:48:07.550Z,5.45
2022-10-11T09:50:35.551Z,4.40
2022-10-11T09:53:04.856Z,6.32
2022-10-11T09:55:34.080Z,5.07
2022-10-11T09:58:01.639Z,5.63
2022-10-11T10:00:33.506Z,4.07
2022-10-11T10:03:01.813Z,4.40
2022-10-11T10:05:29.425Z,5.95
2022-10-11T10:08:04.483Z,6.23
2022-10-11T10:10:35.260Z,4.22
2022-10-11T10:13:03.879Z,5.10
2022-10-11T10:15:33.785Z,7.40
2022-10-11T10:18:01.654Z,4.70
2022-10-11T10:20:31.658Z,5.10
2022-10-11T10:23:00.409Z,4.70
2022-10-11T10:25:32.794Z,4.72
2022-10-11T10:28:01.312Z,4.03
2022-10-11T10:30:33.075Z,5.43
2022-10-11T10:33:05.520Z,4.38
2022-10-11T10:35:35.038Z,4.00
2022-10-11T10:38:10.045Z,4.63
2022-10-11T10:40:40.507Z,5.57
2022-10-11T10:43:11.914Z,6.40
2022-10-11T10:45:43.937Z,5.57
2022-10-11T10:48:17.755Z,4.37
2022-10-11T10:50:49.785Z,6.10
2022-10-11T10:53:21.943Z,7.88
2022-10-11T10:55:53.319Z,6.55
2022-10-11T10:58:34.347Z,4.50
2022-10-11T11:01:05.143Z,5.43
2022-10-11T11:03:36.865Z,6.22
2022-10-11T11:06:07.133Z,4.72
2022-10-11T11:08:51.132Z,5.38
2022-10-11T11:11:24.959Z,5.28
2022-10-11T11:13:55.023Z,6.13
2022-10-11T11:16:27.296Z,5.22
2022-10-11T11:18:59.209Z,5.57
2022-10-11T11:21:40.508Z,5.70
2022-10-11T11:24:14.649Z,5.75
2022-10-11T11:26:46.128Z,5.53
2022-10-11T11:29:19.625Z,5.80
2022-10-11T11:31:51.809Z,5.95
2022-10-11T11:34:23.125Z,5.70
2022-10-11T11:36:52.835Z,7.30
2022-10-11T11:39:21.944Z,5.70
2022-10-11T11:41:52.385Z,7.95
2022-10-11T11:44:27.095Z,8.80
2022-10-11T11:46:57.863Z,6.82
2022-10-11T11:49:30.573Z,5.07
2022-10-11T11:51:58.936Z,8.00
2022-10-11T11:54:31.660Z,6.95
2022-10-11T11:57:02.430Z,6.32
2022-10-11T11:59:34.621Z,7.38
2022-10-11T12:02:08.144Z,7.32
2022-10-11T12:04:39.144Z,8.30
2022-10-11T12:07:22.644Z,7.68
2022-10-11T12:09:51.393Z,5.13
2022-10-11T12:12:29.717Z,5.82
2022-10-11T12:15:04.519Z,5.72
2022-10-11T12:17:32.371Z,7.37
2022-10-11T12:20:10.123Z,5.88
2022-10-11T12:22:39.415Z,6.18
2022-10-11T12:25:33.141Z,6.45
2022-10-11T12:28:01.562Z,7.30
2022-10-11T12:30:55.881Z,11.97
2022-10-11T12:33:24.121Z,6.32
2022-10-11T12:36:00.401Z,7.75
2022-10-11T12:38:33.149Z,7.72
2022-10-11T12:41:20.696Z,6.65
2022-10-11T12:44:07.071Z,9.03
2022-10-11T12:46:42.089Z,7.90
2022-10-11T12:49:22.798Z,9.55
2022-10-11T12:51:56.650Z,8.30
2022-10-11T12:54:37.590Z,6.57
2022-10-11T12:57:19.457Z,5.93
2022-10-11T12:59:47.126Z,4.95
2022-10-11T13:02:24.822Z,6.25
2022-10-11T13:04:52.377Z,5.38
2022-10-11T13:07:23.541Z,7.03
2022-10-11T13:09:53.621Z,6.57
2022-10-11T13:12:23.256Z,7.53
2022-10-11T13:14:57.581Z,5.80
2022-10-11T13:17:26.445Z,5.75
2022-10-11T13:20:00.106Z,5.55
2022-10-11T13:22:29.101Z,5.83
2022-10-11T13:24:57.051Z,4.13
2022-10-11T13:27:26.027Z,5.75
2022-10-11T13:29:54.706Z,4.82
2022-10-11T13:32:23.978Z,4.45
2022-10-11T13:37:28.287Z,5.43
2022-10-11T13:39:58.405Z,6.78
2022-10-11T13:42:28.858Z,4.40
2022-10-11T13:44:56.642Z,6.63
2022-10-11T13:47:27.727Z,4.47
2022-10-11T13:50:02.407Z,4.65
2022-10-11T13:52:30.010Z,5.80
2022-10-11T13:55:09.137Z,6.47
2022-10-11T13:57:38.482Z,8.13
2022-10-11T14:00:10.337Z,6.50
2022-10-11T14:02:38.551Z,7.45
2022-10-11T14:05:06.460Z,6.47
2022-10-11T14:07:36.552Z,6.15
2022-10-11T14:10:06.699Z,4.22
2022-10-11T14:12:35.486Z,5.23
2022-10-11T14:15:04.015Z,4.22
2022-10-11T14:17:38.983Z,6.53
2022-10-11T14:20:11.738Z,7.15
2022-10-11T14:22:39.531Z,8.18
2022-10-11T14:25:08.631Z,5.93
2022-10-11T14:27:37.238Z,5.38
2022-10-11T14:30:24.586Z,3.88
2022-10-11T14:32:54.791Z,7.75
2022-10-11T14:35:23.511Z,7.05
2022-10-11T14:37:51.327Z,7.83
2022-10-11T14:40:21.258Z,13.73
2022-10-11T14:42:49.005Z,4.50
2022-10-11T14:45:16.537Z,5.30
2022-10-11T14:47:44.049Z,4.55
2022-10-11T14:50:20.884Z,4.90
2022-10-11T14:52:48.402Z,3.92
2022-10-11T14:55:15.905Z,7.38
2022-10-11T14:57:44.761Z,7.10
2022-10-11T15:00:16.161Z,4.35
2022-10-11T15:02:43.651Z,6.60
2022-10-11T15:05:11.180Z,5.35
2022-10-11T15:07:38.846Z,5.20
2022-10-11T15:10:15.880Z,3.58
2022-10-11T15:12:43.371Z,6.05
2022-10-11T15:15:16.178Z,5.30
2022-10-11T15:17:44.407Z,6.00
2022-10-11T15:20:16.593Z,5.55
2022-10-11T15:22:44.105Z,5.32
2022-10-11T15:25:11.764Z,4.85
2022-10-11T15:27:39.311Z,5.80
2022-10-11T15:30:08.048Z,7.05
2022-10-11T15:32:36.989Z,5.65
2022-10-11T15:35:04.653Z,5.30
2022-10-11T15:37:37.089Z,6.78
2022-10-11T15:40:11.388Z,4.93
2022-10-11T15:42:39.273Z,5.63
2022-10-11T15:45:06.936Z,8.48
2022-10-11T15:47:34.460Z,5.03
2022-10-11T15:50:03.366Z,7.05
2022-10-11T15:52:31.038Z,7.93
2022-10-11T15:54:58.535Z,7.25
2022-10-11T15:57:26.023Z,6.07
2022-10-11T15:59:53.751Z,5.28
2022-10-11T16:02:21.242Z,6.30
2022-10-11T16:04:48.742Z,5.27
2022-10-11T16:07:17.622Z,7.40
2022-10-11T16:09:45.229Z,6.75
2022-10-11T16:12:12.739Z,3.63
2022-10-11T16:14:44.908Z,5.65
2022-10-11T16:17:14.501Z,5.93
2022-10-11T16:19:42.044Z,6.32
2022-10-11T16:22:09.659Z,7.97
2022-10-11T16:24:38.743Z,5.95
2022-10-11T16:27:06.254Z,9.75
2022-10-11T16:29:34.148Z,6.27
2022-10-11T16:32:01.702Z,9.15
2022-10-11T16:34:29.281Z,5.40
2022-10-11T16:36:56.795Z,5.80
2022-10-11T16:39:24.332Z,6.47
2022-10-11T16:41:53.225Z,6.30
2022-10-11T16:44:21.662Z,13.73
2022-10-11T16:46:49.535Z,9.18
2022-10-11T16:49:17.116Z,11.02
2022-10-11T16:51:44.768Z,11.05
2022-10-11T16:54:15.533Z,12.20
2022-10-11T16:56:45.627Z,10.45
2022-10-11T16:59:14.536Z,11.45
2022-10-11T17:01:42.055Z,9.38
2022-10-11T17:04:10.537Z,12.93
2022-10-11T17:06:38.031Z,80.87
2022-10-11T17:09:05.723Z,122.05
2022-10-11T17:11:35.518Z,140.68
2022-10-11T17:14:03.155Z,153.18
2022-10-11T17:16:32.060Z,117.88
2022-10-11T17:18:59.655Z,108.33
2022-10-11T17:21:27.209Z,49.88
2022-10-11T17:23:54.685Z,22.88
2022-10-11T17:26:23.317Z,19.42
2022-10-11T17:28:50.906Z,14.82
2022-10-11T17:31:18.495Z,16.97
2022-10-11T17:33:47.513Z,16.25
2022-10-11T17:36:16.839Z,14.07
2022-10-11T17:38:44.345Z,10.68
2022-10-11T17:41:11.890Z,12.05
2022-10-11T17:43:39.637Z,8.53
2022-10-11T17:46:08.882Z,9.07
2022-10-11T17:48:39.137Z,11.15
2022-10-11T17:51:09.299Z,11.32
2022-10-11T17:53:37.563Z,11.20
2022-10-11T17:56:05.787Z,19.40
2022-10-11T17:58:33.415Z,13.32
2022-10-11T18:01:04.620Z,7.57
2022-10-11T18:03:32.557Z,7.72
2022-10-11T18:06:02.867Z,8.23
2022-10-11T18:08:34.296Z,7.33
2022-10-11T18:11:04.443Z,8.63
2022-10-11T18:13:32.300Z,10.88
2022-10-11T18:15:59.786Z,8.57
2022-10-11T18:18:27.339Z,7.65
2022-10-11T18:20:54.846Z,10.10
2022-10-11T18:23:22.713Z,8.63
2022-10-11T18:25:51.581Z,10.90
2022-10-11T18:28:19.308Z,10.27
2022-10-11T18:30:47.882Z,10.57
2022-10-11T18:33:16.052Z,7.27
2022-10-11T18:35:43.602Z,9.10
2022-10-11T18:38:11.116Z,8.57
2022-10-11T18:40:40.405Z,8.38
2022-10-11T18:43:12.385Z,7.97
2022-10-11T18:45:39.894Z,12.47
2022-10-11T18:48:08.642Z,12.02
2022-10-11T18:50:36.130Z,9.82
2022-10-11T18:55:36.110Z,9.50
2022-10-11T18:58:03.624Z,12.40
2022-10-11T19:00:40.828Z,6.45
2022-10-11T19:03:08.963Z,9.73
2022-10-11T19:05:39.109Z,10.32
2022-10-11T19:08:07.129Z,9.82
2022-10-11T19:10:35.137Z,11.30
2022-10-11T19:13:03.495Z,10.32
2022-10-11T19:15:32.376Z,10.43
2022-10-11T19:18:00.095Z,11.02
2022-10-11T19:20:27.664Z,9.20
2022-10-11T19:22:55.220Z,8.30
2022-10-11T19:25:22.857Z,10.00
2022-10-11T19:27:50.357Z,10.68
2022-10-11T19:30:17.887Z,9.85
2022-10-11T19:32:46.810Z,11.90
2022-10-11T19:35:19.703Z,10.30
2022-10-11T19:37:48.462Z,11.50
2022-10-11T19:40:16.905Z,10.88
2022-10-11T19:42:46.497Z,9.85
2022-10-11T19:45:14.083Z,10.07
2022-10-11T19:47:41.624Z,11.73
2022-10-11T19:50:10.900Z,10.60
2022-10-11T19:52:41.530Z,10.98
2022-10-11T19:55:12.289Z,12.68
2022-10-11T19:57:39.798Z,14.48
2022-10-11T20:00:07.820Z,10.57
2022-10-11T20:02:35.322Z,10.77
2022-10-11T20:05:02.822Z,13.70
2022-10-11T20:07:31.821Z,14.00
2022-10-11T20:09:59.579Z,14.88
2022-10-11T20:12:29.375Z,15.17
2022-10-11T20:14:57.145Z,12.57
2022-10-11T20:17:44.649Z,13.55
2022-10-11T20:20:12.255Z,12.73
2022-10-11T20:22:41.143Z,13.68
2022-10-11T20:25:09.110Z,12.80
2022-10-11T20:27:36.665Z,12.27
2022-10-11T20:30:04.451Z,13.07
2022-10-11T20:32:31.965Z,13.57
2022-10-11T20:34:59.462Z,11.95
2022-10-11T20:37:26.967Z,11.00
2022-10-11T20:39:55.806Z,11.52
2022-10-11T20:42:27.592Z,10.90
2022-10-11T20:44:57.178Z,14.38
2022-10-11T20:47:24.719Z,12.02
2022-10-11T20:49:52.549Z,13.27
2022-10-11T20:52:20.049Z,10.70
2022-10-11T20:54:47.583Z,11.18
2022-10-11T20:57:16.427Z,11.60
2022-10-11T20:59:43.922Z,9.23
